Amarant — CQSF — position and weather

sailwx.info

Track history (hours):
 
Tides and Currents Weather Stations Pressure Air Temp Water Temp Dewpoint Dewpoint Depression Visibility Wind Speed Wind Dir Waves Ship Positions

Amarant

Last reported at 2014-Nov-23 09:11 UTC. Time now 2014-Nov-23 14:40 UTC.
Position N 53°19' E 004°29'.

Length 120 m; draft 7.4 m.

Type: Tanker. MMSI: 255623000.

Date/timePositionNaut miles runAvg speedWind from/ knotsBaromVisibWave heightAir tempDewpointWater temp
2014-Nov-23 09:11N 53°19' E 004°29'33611.0
2014-Nov-22 02:28N 57°47' E 010°27'1213.2
2014-Nov-22 01:33N 57°49' E 010°50'1313.2
2014-Nov-22 00:33N 57°39' E 011°07'1313.1
2014-Nov-21 23:33N 57°29' E 011°23'6412.7
2014-Nov-21 18:33N 56°29' E 012°01'1212.5
2014-Nov-21 17:33N 56°19' E 012°15'1313.0
2014-Nov-21 16:33N 56°09' E 012°30'1312.8
2014-Nov-21 15:33N 55°59' E 012°42'1212.3
2014-Nov-21 14:33N 55°46' E 012°42'1211.6
2014-Nov-21 13:33N 55°35' E 012°42'1111.2
2014-Nov-21 12:33N 55°24' E 012°41'1010.3
2014-Nov-21 11:33N 55°16' E 012°53'1313.1
2014-Nov-21 10:33N 55°15' E 013°16'3812.6
2014-Nov-21 07:33N 55°18' E 014°22'1413.1
2014-Nov-21 06:28N 55°28' E 014°40'1213.3
2014-Nov-21 05:33N 55°34' E 014°58'12412.3
2014-Nov-20 19:29N 57°12' E 017°16'1313.3
2014-Nov-20 18:31N 57°25' E 017°21'  
2014-Nov-16 10:29N 57°35' E 017°25'1212.6
2014-Nov-16 09:32N 57°23' E 017°21'1312.7
2014-Nov-16 08:33N 57°11' E 017°16'116 9.6
2014-Nov-15 20:29N 55°36' E 015°17'9 9.3
2014-Nov-15 19:33N 55°32' E 015°03'1010.0
2014-Nov-15 18:33N 55°27' E 014°48'1110.6
2014-Nov-15 17:31N 55°20' E 014°33'1111.3
2014-Nov-15 16:33N 55°11' E 014°20'4510.7
2014-Nov-15 12:22N 55°13' E 013°02'910.5
2014-Nov-15 11:34N 55°16' E 012°48'8 8.3
2014-Nov-15 10:34N 55°22' E 012°39'1111.0
2014-Nov-15 09:34N 55°33' E 012°42'9 8.7
2014-Nov-15 08:34N 55°42' E 012°41'10 9.8
2014-Nov-15 07:34N 55°52' E 012°40'1110.8
2014-Nov-15 06:34N 56°02' E 012°38'8 8.3
2014-Nov-15 05:34N 56°08' E 012°28'8 8.1
2014-Nov-15 04:33N 56°15' E 012°20'10 9.9
2014-Nov-15 03:33N 56°25' E 012°15'5711.1
2014-Nov-14 22:25N 57°20' E 011°47'1011.7
2014-Nov-14 21:33N 57°29' E 011°41'1010.2
2014-Nov-14 20:34N 57°39' E 011°43'6 5.3
2014-Nov-14 19:31N 57°41' E 011°52'0 0.0
2014-Nov-14 18:31N 57°42' E 011°52'0 0.0
2014-Nov-14 17:28N 57°41' E 011°52'0 0.0
2014-Nov-14 16:31N 57°41' E 011°52'0 0.0
2014-Nov-14 15:31N 57°42' E 011°52'0 0.0
2014-Nov-14 14:31N 57°41' E 011°52'0 0.0
2014-Nov-14 12:31N 57°41' E 011°52'0 0.0
2014-Nov-14 11:31N 57°41' E 011°52'0 0.0
2014-Nov-14 10:31N 57°41' E 011°52'0 0.0
2014-Nov-14 09:31N 57°41' E 011°52'0 0.0
2014-Nov-14 08:31N 57°41' E 011°52'0 0.0
2014-Nov-14 07:31N 57°41' E 011°52'0 0.0
2014-Nov-14 06:31N 57°41' E 011°52'0 0.0
2014-Nov-14 05:28N 57°41' E 011°52'0 0.0
2014-Nov-14 04:31N 57°41' E 011°52'0 0.0
2014-Nov-14 03:31N 57°42' E 011°52'0 0.0
2014-Nov-14 02:31N 57°42' E 011°52'0 0.0
2014-Nov-14 01:31N 57°41' E 011°52'0 0.0
2014-Nov-14 00:31N 57°41' E 011°52'0 0.0
2014-Nov-13 23:31N 57°41' E 011°52'1 1.0
2014-Nov-13 22:34N 57°41' E 011°51'1111.3
2014-Nov-13 21:34N 57°37' E 011°32'1212.3
2014-Nov-13 20:33N 57°42' E 011°10'1512.8
2014-Nov-13 19:25N 57°47' E 010°45'  
Track history (hours):
 
Tides and Currents Weather Stations Pressure Air Temp Water Temp Dewpoint Dewpoint Depression Visibility Wind Speed Wind Dir Waves Ship Positions

Amarant

Last reported at 2014-Nov-23 09:11 UTC. Time now 2014-Nov-23 14:40 UTC.
Position N 53°19' E 004°29'.

Length 120 m; draft 7.4 m.

Type: Tanker. MMSI: 255623000.

Date/timePositionNaut miles runAvg speedWind from/ knotsBaromVisibWave heightAir tempDewpointWater temp
2014-Nov-23 09:11N 53°19' E 004°29'33611.0
2014-Nov-22 02:28N 57°47' E 010°27'1213.2
2014-Nov-22 01:33N 57°49' E 010°50'1313.2
2014-Nov-22 00:33N 57°39' E 011°07'1313.1
2014-Nov-21 23:33N 57°29' E 011°23'6412.7
2014-Nov-21 18:33N 56°29' E 012°01'1212.5
2014-Nov-21 17:33N 56°19' E 012°15'1313.0
2014-Nov-21 16:33N 56°09' E 012°30'1312.8
2014-Nov-21 15:33N 55°59' E 012°42'1212.3
2014-Nov-21 14:33N 55°46' E 012°42'1211.6
2014-Nov-21 13:33N 55°35' E 012°42'1111.2
2014-Nov-21 12:33N 55°24' E 012°41'1010.3
2014-Nov-21 11:33N 55°16' E 012°53'1313.1
2014-Nov-21 10:33N 55°15' E 013°16'3812.6
2014-Nov-21 07:33N 55°18' E 014°22'1413.1
2014-Nov-21 06:28N 55°28' E 014°40'1213.3
2014-Nov-21 05:33N 55°34' E 014°58'12412.3
2014-Nov-20 19:29N 57°12' E 017°16'1313.3
2014-Nov-20 18:31N 57°25' E 017°21'  
2014-Nov-16 10:29N 57°35' E 017°25'1212.6
2014-Nov-16 09:32N 57°23' E 017°21'1312.7
2014-Nov-16 08:33N 57°11' E 017°16'116 9.6
2014-Nov-15 20:29N 55°36' E 015°17'9 9.3
2014-Nov-15 19:33N 55°32' E 015°03'1010.0
2014-Nov-15 18:33N 55°27' E 014°48'1110.6
2014-Nov-15 17:31N 55°20' E 014°33'1111.3
2014-Nov-15 16:33N 55°11' E 014°20'4510.7
2014-Nov-15 12:22N 55°13' E 013°02'910.5
2014-Nov-15 11:34N 55°16' E 012°48'8 8.3
2014-Nov-15 10:34N 55°22' E 012°39'1111.0
2014-Nov-15 09:34N 55°33' E 012°42'9 8.7
2014-Nov-15 08:34N 55°42' E 012°41'10 9.8
2014-Nov-15 07:34N 55°52' E 012°40'1110.8
2014-Nov-15 06:34N 56°02' E 012°38'8 8.3
2014-Nov-15 05:34N 56°08' E 012°28'8 8.1
2014-Nov-15 04:33N 56°15' E 012°20'10 9.9
2014-Nov-15 03:33N 56°25' E 012°15'5711.1
2014-Nov-14 22:25N 57°20' E 011°47'1011.7
2014-Nov-14 21:33N 57°29' E 011°41'1010.2
2014-Nov-14 20:34N 57°39' E 011°43'6 5.3
2014-Nov-14 19:31N 57°41' E 011°52'0 0.0
2014-Nov-14 18:31N 57°42' E 011°52'0 0.0
2014-Nov-14 17:28N 57°41' E 011°52'0 0.0
2014-Nov-14 16:31N 57°41' E 011°52'0 0.0
2014-Nov-14 15:31N 57°42' E 011°52'0 0.0
2014-Nov-14 14:31N 57°41' E 011°52'0 0.0
2014-Nov-14 12:31N 57°41' E 011°52'0 0.0
2014-Nov-14 11:31N 57°41' E 011°52'0 0.0
2014-Nov-14 10:31N 57°41' E 011°52'0 0.0
2014-Nov-14 09:31N 57°41' E 011°52'0 0.0
2014-Nov-14 08:31N 57°41' E 011°52'0 0.0
2014-Nov-14 07:31N 57°41' E 011°52'0 0.0
2014-Nov-14 06:31N 57°41' E 011°52'0 0.0
2014-Nov-14 05:28N 57°41' E 011°52'0 0.0
2014-Nov-14 04:31N 57°41' E 011°52'0 0.0
2014-Nov-14 03:31N 57°42' E 011°52'0 0.0
2014-Nov-14 02:31N 57°42' E 011°52'0 0.0
2014-Nov-14 01:31N 57°41' E 011°52'0 0.0
2014-Nov-14 00:31N 57°41' E 011°52'0 0.0
2014-Nov-13 23:31N 57°41' E 011°52'1 1.0
2014-Nov-13 22:34N 57°41' E 011°51'1111.3
2014-Nov-13 21:34N 57°37' E 011°32'1212.3
2014-Nov-13 20:33N 57°42' E 011°10'1512.8
2014-Nov-13 19:25N 57°47' E 010°45'  

Dump ship's entire track history